Clearfield, PA

4:49 AM EDT on July 24, 2014 (GMT -0400)
Indiana County-Stewart (KIDI) Elev 1407 ft | 40.63 °N, 79.11 °W | Change Station

Current weather conditions updated 14 minutes ago

Overcast
Overcast
63 °F
Feels Like 63 °F
N
0
Wind Variable Wind from North

Today is forecast to be Cooler than yesterday.

Today
High -- | Low -- °F
--% Chance of Precip.
Yesterday
High -- | Low -- °F
Precip. -- in
6:02 AM 8:37 PM
Waning Crescent, 6% visible
Pressure 30.02 in
Visibility 10.0 miles
Clouds Few 400 ft
Few 1200 ft
Overcast 4000 ft
Dew Point 61 °F
Humidity 94%
Rainfall 0.00 in
Snow Depth Not available.
UV 0 out of 12
Pollen 5.70 out of 12
Air Quality Not available.
Flu Activity Not available.
METAR KIDI 240835Z AUTO 00000KT 10SM FEW004 FEW012 OVC040 17/16 A3002 RMK A01

More Conditions Fewer Conditions

Pressure 30.02 in
Visibility 10.0 miles
Clouds Few 400 ft
Few 1200 ft
Overcast 4000 ft
Dew Point 61 °F
Humidity 94%
Rainfall 0.00 in
Snow Depth Not available.
UV 0 out of 12
Pollen 5.70 out of 12
Air Quality Not available.
Flu Activity Not available.
METAR KIDI 240835Z AUTO 00000KT 10SM FEW004 FEW012 OVC040 17/16 A3002 RMK A01

More Conditions Fewer Conditions

10-Day Weather Forecast

Almanac

Astronomy

Jul. 24, 2014 Rise Set
Actual Time 6:02 AM EDT 8:37 PM EDT
Civil Twilight 5:30 AM EDT 9:09 PM EDT
Nautical Twilight 4:50 AM EDT 9:48 PM EDT
Astronomical Twilight 4:06 AM EDT 10:33 PM EDT
Moon 4:08 AM EDT 6:51 PM EDT
Length of Visible Light 15h 39m
Length of Day
14h 35m
Tomorrow will be 1m 48s shorter.
Waning Crescent, 6% of the Moon is Illuminated
Today
Waning Crescent
Jul 26
New
Aug 3
First Quarter
Aug 10
Full
Aug 17
Last Quarter

Today's Extremes

State Highs State Lows

Community

WunderPhotos

Upload Photos

1,736,950 photos uploaded!

Nearby

Snow Depth

Station Depth Elevation
No new snow has been reported.

Earthquake Activity

City Distance Mag. Time & Date
No recent earthquake activity has been reported nearby.
Minimum magnitude displayed is 2.5.

Coastal Water Temperatures

Place Temperature
No Stations Reporting

Nearby Weather Stations

Station Location Temp. Dew Point Humidity Wind Precip. Elev Updated Type
Holly Terrace, Falls Creek, PA 54.3 °F 54 °F 98% WSW  at  0.0 mph 0.00 in / hr 1473 ft 4:49 AM EDT Rapid Fire

Show More Stations Show Fewer Stations